»·PEaware :: N135GD KTUS-KELP

N135GD :: KTUS-KELP

FLIGHT INFORMATION

Flight Status: Arrived
Operator: Privately registered:
United States
More flights under this callsign
Pilot: Graham D. (41507)
Aircraft: CIRRUS SR-22 TURBO
(S22T)
More flights by this aircraft type
Origin: KTUS Tucson Intl
United States
Destination: KELP El Paso Intl
United States
More flights between these airports :: More routes between these airports
Route:
File this flight plan on PilotEdge
Remarks:
Altitude:
(Current/Filed)
9,500ft
Speed:
(Current/Filed)
0kts
Departed: 21-Sep-23 02:18 PM
Arrived: 21-Sep-23 03:33 PM
Distance/Time
Traveled:
233nm/1:14
Distance/Time
To Go:
Arrived

Flight Plot

Page will automatically refresh every two minutes.

Flight plan parsing failed; only flown route is shown


Map Options




Map Legend


Flown Route
Filed Route
Departure Airport
Arrival Airport
Navaid (VOR, NDB)
Fix

Horizontal Profiles

Position Reports

Time Latitude Longitude Heading Altitude Ground
Speed
21-Sep-23 13:56 32.127946 -110.942573 317 2571ft 0kts
21-Sep-23 13:57 32.127946 -110.942573 317 2571ft 0kts
21-Sep-23 13:58 32.127946 -110.942573 317 2571ft 0kts
21-Sep-23 13:59 32.127946 -110.942573 317 2571ft 0kts
21-Sep-23 14:00 32.127946 -110.942573 317 2571ft 0kts
21-Sep-23 14:01 32.127946 -110.942573 316 2571ft 0kts
21-Sep-23 14:02 32.127946 -110.942573 317 2571ft 0kts
21-Sep-23 14:03 32.128007 -110.942881 267 2570ft 6kts
21-Sep-23 14:04 32.127388 -110.944514 225 2568ft 2kts
21-Sep-23 14:05 32.126314 -110.945750 228 2570ft 0kts
21-Sep-23 14:06 32.124867 -110.947153 159 2571ft 10kts
21-Sep-23 14:07 32.122110 -110.943951 135 2583ft 17kts
21-Sep-23 14:08 32.118453 -110.939627 134 2598ft 20kts
21-Sep-23 14:09 32.114524 -110.935017 135 2611ft 15kts
21-Sep-23 14:10 32.112156 -110.932247 135 2619ft 10kts
21-Sep-23 14:11 32.110190 -110.929940 134 2624ft 9kts
21-Sep-23 14:12 32.108674 -110.928178 136 2631ft 5kts
21-Sep-23 14:13 32.106861 -110.926096 134 2636ft 10kts
21-Sep-23 14:14 32.104607 -110.923391 131 2647ft 10kts
21-Sep-23 14:15 32.103043 -110.922429 222 2649ft 0kts
21-Sep-23 14:16 32.102548 -110.923433 295 2647ft 4kts
21-Sep-23 14:17 32.119562 -110.944557 287 3446ft 114kts
21-Sep-23 14:18 32.100421 -110.949607 131 4882ft 146kts
21-Sep-23 14:19 32.069777 -110.910075 139 5986ft 153kts
21-Sep-23 14:20 32.057116 -110.859097 96 6865ft 175kts
21-Sep-23 14:21 32.055003 -110.797010 96 7384ft 182kts
21-Sep-23 14:22 32.052416 -110.734779 96 7892ft 184kts
21-Sep-23 14:23 32.049522 -110.669851 97 8417ft 185kts
21-Sep-23 14:24 32.046738 -110.606129 96 8931ft 186kts
21-Sep-23 14:25 32.044038 -110.545029 96 9413ft 183kts
21-Sep-23 14:26 32.041239 -110.480709 96 9632ft 194kts
21-Sep-23 14:27 32.038255 -110.415533 95 9631ft 200kts
21-Sep-23 14:28 32.035240 -110.349198 96 9627ft 201kts
21-Sep-23 14:29 32.032138 -110.282915 96 9627ft 201kts
21-Sep-23 14:30 32.029136 -110.216280 96 9495ft 201kts
21-Sep-23 14:31 32.026130 -110.150735 96 9498ft 200kts
21-Sep-23 14:32 32.022725 -110.080188 95 9500ft 200kts
21-Sep-23 14:33 32.019404 -110.010825 95 9501ft 201kts
21-Sep-23 14:35 32.016019 -109.943121 95 9504ft 201kts
21-Sep-23 14:36 32.012837 -109.877292 96 9507ft 201kts
21-Sep-23 14:37 32.009357 -109.806696 95 9509ft 201kts
21-Sep-23 14:38 32.005939 -109.740583 96 9508ft 201kts
21-Sep-23 14:39 32.002703 -109.674234 95 9508ft 201kts
21-Sep-23 14:40 31.999344 -109.607942 95 9506ft 202kts
21-Sep-23 14:41 31.995756 -109.539624 96 9509ft 202kts
21-Sep-23 14:42 31.992211 -109.471904 96 9508ft 202kts
21-Sep-23 14:43 31.988642 -109.404125 96 9506ft 201kts
21-Sep-23 14:44 31.984923 -109.335432 96 9505ft 202kts
21-Sep-23 14:45 31.981227 -109.267081 96 9505ft 201kts
21-Sep-23 14:46 31.977629 -109.198876 96 9505ft 201kts
21-Sep-23 14:47 31.973824 -109.130674 96 9524ft 201kts
21-Sep-23 14:48 31.969999 -109.062550 96 9541ft 200kts
21-Sep-23 14:49 31.966229 -108.994641 96 9561ft 200kts
21-Sep-23 14:50 31.962393 -108.927272 95 9573ft 200kts
21-Sep-23 14:51 31.958611 -108.859711 96 9571ft 200kts
21-Sep-23 14:52 31.954705 -108.793306 96 9570ft 200kts
21-Sep-23 14:53 31.950804 -108.726505 95 9573ft 200kts
21-Sep-23 14:54 31.946977 -108.660763 96 9571ft 200kts
21-Sep-23 14:55 31.943083 -108.595225 95 9573ft 200kts
21-Sep-23 14:56 31.939250 -108.529758 96 9574ft 200kts
21-Sep-23 14:57 31.935241 -108.464191 96 9572ft 200kts
21-Sep-23 14:58 31.931243 -108.398613 95 9573ft 200kts
21-Sep-23 14:59 31.927208 -108.333146 96 9557ft 201kts
21-Sep-23 14:59 31.923833 -108.278537 96 9542ft 200kts
21-Sep-23 15:01 31.919094 -108.201984 96 9538ft 201kts
21-Sep-23 15:02 31.914903 -108.136300 96 9526ft 200kts
21-Sep-23 15:03 31.910768 -108.070644 96 9513ft 200kts
21-Sep-23 15:04 31.906526 -108.005258 96 9499ft 200kts
21-Sep-23 15:04 31.903064 -107.950848 96 9499ft 200kts
21-Sep-23 15:05 31.898833 -107.885382 96 9501ft 200kts
21-Sep-23 15:07 31.893804 -107.808937 96 9501ft 200kts
21-Sep-23 15:08 31.889485 -107.743495 96 9501ft 200kts
21-Sep-23 15:08 31.885937 -107.689011 96 9500ft 200kts
21-Sep-23 15:09 31.881523 -107.623623 96 9501ft 200kts
21-Sep-23 15:10 31.877009 -107.558085 96 9501ft 200kts
21-Sep-23 15:11 31.872572 -107.492721 96 9501ft 200kts
21-Sep-23 15:13 31.867382 -107.416670 96 9502ft 200kts
21-Sep-23 15:13 31.863660 -107.362350 96 9501ft 200kts
21-Sep-23 15:14 31.859112 -107.297114 96 9501ft 200kts
21-Sep-23 15:15 31.854505 -107.231850 96 9500ft 200kts
21-Sep-23 15:16 31.849922 -107.166746 96 9500ft 199kts
21-Sep-23 15:17 31.845212 -107.101084 96 9301ft 204kts
21-Sep-23 15:18 31.840380 -107.034151 96 9007ft 204kts
21-Sep-23 15:19 31.835618 -106.967536 96 8710ft 203kts
21-Sep-23 15:20 31.830763 -106.901293 96 8415ft 203kts
21-Sep-23 15:21 31.825901 -106.835009 96 8118ft 202kts
21-Sep-23 15:22 31.820777 -106.766035 96 7811ft 201kts
21-Sep-23 15:23 31.815480 -106.694340 96 7491ft 201kts
21-Sep-23 15:24 31.810060 -106.622477 96 7074ft 202kts
21-Sep-23 15:25 31.802255 -106.555477 102 6577ft 202kts
21-Sep-23 15:26 31.785011 -106.492616 112 6076ft 200kts
21-Sep-23 15:27 31.766667 -106.432022 86 5528ft 169kts
21-Sep-23 15:28 31.792188 -106.390347 87 5147ft 150kts
21-Sep-23 15:29 31.788643 -106.346379 97 5169ft 108kts
21-Sep-23 15:30 31.800617 -106.338061 266 4629ft 96kts
21-Sep-23 15:31 31.801167 -106.369042 270 3961ft 54kts
21-Sep-23 15:32 31.801226 -106.377318 214 3961ft 12kts

Navigation Log

Ident Type
Flight plan parsing failed, navigation log unavailable